createdAt,value
2023-02-18T00:00:52.819Z,61.16
2023-02-18T00:03:55.346Z,60.95
2023-02-18T00:06:57.964Z,60.80
2023-02-18T00:10:00.674Z,61.10
2023-02-18T00:13:03.328Z,60.66
2023-02-18T00:16:08.979Z,60.35
2023-02-18T00:19:15.471Z,60.35
2023-02-18T00:22:17.999Z,60.28
2023-02-18T00:25:20.431Z,60.28
2023-02-18T00:28:22.914Z,60.06
2023-02-18T00:31:32.767Z,59.92
2023-02-18T00:34:36.924Z,60.34
2023-02-18T00:37:39.413Z,60.00
2023-02-18T00:40:42.605Z,60.36
2023-02-18T00:43:45.114Z,60.02
2023-02-18T00:46:49.819Z,59.88
2023-02-18T00:49:52.524Z,60.07
2023-02-18T00:52:55.264Z,60.31
2023-02-18T00:55:58.233Z,60.31
2023-02-18T00:59:00.851Z,60.45
2023-02-18T01:02:03.526Z,60.45
2023-02-18T01:05:06.193Z,60.39
2023-02-18T01:08:11.302Z,59.60
2023-02-18T01:11:14.174Z,60.07
2023-02-18T01:14:16.616Z,59.68
2023-02-18T01:17:19.778Z,59.74
2023-02-18T01:20:22.433Z,59.40
2023-02-18T01:23:24.916Z,59.34
2023-02-18T01:26:27.380Z,59.39
2023-02-18T01:29:29.947Z,59.45
2023-02-18T01:32:32.846Z,59.40
2023-02-18T01:35:38.584Z,58.88
2023-02-18T01:38:41.619Z,59.48
2023-02-18T01:41:44.058Z,59.25
2023-02-18T01:44:48.957Z,59.53
2023-02-18T01:47:51.426Z,59.86
2023-02-18T01:51:00.220Z,59.93
2023-02-18T01:54:08.679Z,60.02
2023-02-18T01:57:23.390Z,59.55
2023-02-18T02:00:26.272Z,59.83
2023-02-18T02:03:28.919Z,60.23
2023-02-18T02:06:31.806Z,60.26
2023-02-18T02:09:36.482Z,60.55
2023-02-18T02:13:10.917Z,60.74
2023-02-18T02:16:43.267Z,60.88
2023-02-18T02:20:11.989Z,60.70
2023-02-18T02:23:28.492Z,60.73
2023-02-18T02:26:59.249Z,61.16
2023-02-18T02:30:12.440Z,60.19
2023-02-18T02:33:41.494Z,60.20
2023-02-18T02:37:14.525Z,60.70
2023-02-18T02:40:34.975Z,60.31
2023-02-18T02:43:59.013Z,60.19
2023-02-18T02:47:10.713Z,60.59
2023-02-18T02:50:15.888Z,60.03
2023-02-18T02:53:28.519Z,60.17
2023-02-18T02:56:31.095Z,59.94
2023-02-18T02:59:36.941Z,60.03
2023-02-18T03:03:03.570Z,60.15
2023-02-18T03:06:24.078Z,59.97
2023-02-18T03:09:38.731Z,59.93
2023-02-18T03:12:54.931Z,60.44
2023-02-18T03:16:11.771Z,60.14
2023-02-18T03:19:33.388Z,59.87
2023-02-18T03:22:42.415Z,59.80
2023-02-18T03:25:45.123Z,59.61
2023-02-18T03:28:51.562Z,59.62
2023-02-18T03:31:57.981Z,59.51
2023-02-18T03:35:06.375Z,59.60
2023-02-18T03:38:22.258Z,59.72
2023-02-18T03:41:25.846Z,59.51
2023-02-18T03:44:30.760Z,59.70
2023-02-18T03:47:33.643Z,59.57
2023-02-18T03:50:36.231Z,59.54
2023-02-18T03:53:39.102Z,59.55
2023-02-18T03:56:42.645Z,60.04
2023-02-18T03:59:45.447Z,59.71
2023-02-18T04:02:48.064Z,59.85
2023-02-18T04:05:50.517Z,59.63
2023-02-18T04:08:52.987Z,59.70
2023-02-18T04:11:55.512Z,60.33
2023-02-18T04:14:58.021Z,60.60
2023-02-18T04:18:00.955Z,60.73
2023-02-18T04:21:03.983Z,60.64
2023-02-18T04:24:06.567Z,60.96
2023-02-18T04:27:09.154Z,61.03
2023-02-18T04:30:12.805Z,61.21
2023-02-18T04:33:16.942Z,61.43
2023-02-18T04:36:19.442Z,61.61
2023-02-18T04:39:22.276Z,61.83
2023-02-18T04:42:24.735Z,61.71
2023-02-18T04:45:27.912Z,61.76
2023-02-18T04:48:30.683Z,61.76
2023-02-18T04:51:33.997Z,62.49
2023-02-18T04:54:36.504Z,62.87
2023-02-18T04:57:38.997Z,62.74
2023-02-18T05:00:41.573Z,62.67
2023-02-18T05:03:46.116Z,63.02
2023-02-18T05:06:48.742Z,62.90
2023-02-18T05:09:51.218Z,63.58
2023-02-18T05:12:53.728Z,63.59
2023-02-18T05:15:56.222Z,63.97
2023-02-18T05:18:58.900Z,63.43
2023-02-18T05:22:01.365Z,63.31
2023-02-18T05:25:04.316Z,63.23
2023-02-18T05:28:06.955Z,62.97
2023-02-18T05:31:09.790Z,63.15
2023-02-18T05:34:12.360Z,63.85
2023-02-18T05:37:14.917Z,64.50
2023-02-18T05:40:17.554Z,65.06
2023-02-18T05:43:20.098Z,65.27
2023-02-18T05:46:22.899Z,65.20
2023-02-18T05:49:25.583Z,66.17
2023-02-18T05:52:28.255Z,67.35
2023-02-18T05:55:30.779Z,67.81
2023-02-18T05:58:33.414Z,68.37
2023-02-18T06:01:35.999Z,68.44
2023-02-18T06:04:39.288Z,68.07
2023-02-18T06:07:41.842Z,68.20
2023-02-18T06:10:44.406Z,67.75
2023-02-18T06:13:47.081Z,67.64
2023-02-18T06:16:49.631Z,67.56
2023-02-18T06:19:52.212Z,67.48
2023-02-18T06:22:54.730Z,67.14
2023-02-18T06:25:57.370Z,66.20
2023-02-18T06:28:59.997Z,66.15
2023-02-18T06:32:02.721Z,66.24
2023-02-18T06:35:05.502Z,66.71
2023-02-18T06:38:07.974Z,66.84
2023-02-18T06:41:11.628Z,66.85
2023-02-18T06:44:16.978Z,67.29
2023-02-18T06:47:19.545Z,66.88
2023-02-18T06:50:22.097Z,66.23
2023-02-18T06:53:24.587Z,66.96
2023-02-18T06:56:27.135Z,66.98
2023-02-18T06:59:29.719Z,66.54
2023-02-18T07:02:32.248Z,65.33
2023-02-18T07:05:35.214Z,65.46
2023-02-18T07:08:39.164Z,65.03
2023-02-18T07:11:42.154Z,66.03
2023-02-18T07:14:44.712Z,65.88
2023-02-18T07:17:47.192Z,66.38
2023-02-18T07:20:49.686Z,66.78
2023-02-18T07:23:52.374Z,67.15
2023-02-18T07:26:54.996Z,67.21
2023-02-18T07:29:57.721Z,67.24
2023-02-18T07:33:01.876Z,67.49
2023-02-18T07:36:06.649Z,67.79
2023-02-18T07:39:09.252Z,68.00
2023-02-18T07:42:13.345Z,67.76
2023-02-18T07:45:16.617Z,67.46
2023-02-18T07:48:19.532Z,67.56
2023-02-18T07:51:21.987Z,67.55
2023-02-18T07:54:24.852Z,66.93
2023-02-18T07:57:27.412Z,65.75
2023-02-18T08:00:29.873Z,64.80
2023-02-18T08:03:34.719Z,63.92
2023-02-18T08:06:43.287Z,63.29
2023-02-18T08:09:46.011Z,63.77
2023-02-18T08:12:48.533Z,63.23
2023-02-18T08:15:51.110Z,63.52
2023-02-18T08:18:53.549Z,64.16
2023-02-18T08:21:56.154Z,64.09
2023-02-18T08:24:58.678Z,63.42
2023-02-18T08:28:01.227Z,63.30
2023-02-18T08:31:04.408Z,62.91
2023-02-18T08:34:06.986Z,62.26
2023-02-18T08:37:09.477Z,63.42
2023-02-18T08:40:12.710Z,63.34
2023-02-18T08:43:17.954Z,63.12
2023-02-18T08:46:33.401Z,62.61
2023-02-18T08:49:38.638Z,62.04
2023-02-18T08:52:41.344Z,61.94
2023-02-18T08:55:44.960Z,61.70
2023-02-18T08:58:47.691Z,62.87
2023-02-18T09:01:50.566Z,62.67
2023-02-18T09:04:53.522Z,61.12
2023-02-18T09:07:55.991Z,61.07
2023-02-18T09:11:01.140Z,60.57
2023-02-18T09:14:03.678Z,60.11
2023-02-18T09:17:06.092Z,60.37
2023-02-18T09:20:09.394Z,60.00
2023-02-18T09:23:11.971Z,60.22
2023-02-18T09:26:17.276Z,59.62
2023-02-18T09:29:20.363Z,59.65
2023-02-18T09:32:34.365Z,59.53
2023-02-18T09:35:44.192Z,59.27
2023-02-18T09:38:47.740Z,59.21
2023-02-18T09:41:57.807Z,58.78
2023-02-18T09:45:04.937Z,57.70
2023-02-18T09:48:09.819Z,57.65
2023-02-18T09:51:15.796Z,57.26
2023-02-18T09:54:20.177Z,58.13
2023-02-18T09:57:34.590Z,57.35
2023-02-18T10:00:44.439Z,58.24
2023-02-18T10:03:47.331Z,59.07
2023-02-18T10:06:53.514Z,60.10
2023-02-18T10:10:00.134Z,59.30
2023-02-18T10:13:04.347Z,59.58
2023-02-18T10:16:08.589Z,59.45
2023-02-18T10:19:46.388Z,59.92
2023-02-18T10:22:50.405Z,59.99
2023-02-18T10:25:53.015Z,60.75
2023-02-18T10:28:55.854Z,60.81
2023-02-18T10:32:22.039Z,60.88
2023-02-18T10:35:34.306Z,60.75
2023-02-18T10:38:56.951Z,61.37
2023-02-18T10:42:30.622Z,60.98
2023-02-18T10:45:49.950Z,60.44
2023-02-18T10:49:00.575Z,60.63
2023-02-18T10:52:05.399Z,60.06
2023-02-18T10:55:12.540Z,59.52
2023-02-18T10:58:31.384Z,58.96
2023-02-18T11:01:34.049Z,59.74
2023-02-18T11:04:42.515Z,60.10
2023-02-18T11:07:49.098Z,61.27
2023-02-18T11:10:52.852Z,62.13
2023-02-18T11:14:00.651Z,61.83
2023-02-18T11:17:37.838Z,61.67
2023-02-18T11:20:41.539Z,62.00
2023-02-18T11:23:49.964Z,61.53
2023-02-18T11:26:52.509Z,60.74
2023-02-18T11:30:02.397Z,60.27
2023-02-18T11:33:17.889Z,60.57
2023-02-18T11:36:32.247Z,60.58
2023-02-18T11:39:34.932Z,60.86
2023-02-18T11:42:37.703Z,60.60
2023-02-18T11:45:40.614Z,60.83
2023-02-18T11:48:43.350Z,61.92
2023-02-18T11:51:48.049Z,61.10
2023-02-18T11:54:59.795Z,61.48
2023-02-18T11:58:07.439Z,61.61
2023-02-18T12:01:25.235Z,61.23
2023-02-18T12:04:33.695Z,61.63
2023-02-18T12:07:49.484Z,61.75
2023-02-18T12:11:02.015Z,61.01
2023-02-18T12:14:13.149Z,60.60
2023-02-18T12:17:34.440Z,60.41
2023-02-18T12:20:54.759Z,60.80
2023-02-18T12:24:21.849Z,59.56
2023-02-18T12:27:56.402Z,59.70
2023-02-18T12:31:37.208Z,60.15
2023-02-18T12:34:53.799Z,59.99
2023-02-18T12:38:15.498Z,59.04
2023-02-18T12:41:20.933Z,58.60
2023-02-18T12:44:26.166Z,57.34
2023-02-18T12:48:19.288Z,57.25
2023-02-18T12:51:59.140Z,57.40
2023-02-18T12:55:35.680Z,57.18
2023-02-18T12:59:16.068Z,56.95
2023-02-18T13:02:37.335Z,55.78
2023-02-18T13:06:04.078Z,54.94
2023-02-18T13:09:24.319Z,55.15
2023-02-18T13:13:03.469Z,54.92
2023-02-18T13:16:11.943Z,53.90
2023-02-18T13:19:45.859Z,54.10
2023-02-18T13:22:50.530Z,53.80
2023-02-18T13:26:00.792Z,54.33
2023-02-18T13:29:20.761Z,52.99
2023-02-18T13:32:26.251Z,52.40
2023-02-18T13:35:54.755Z,50.86
2023-02-18T13:39:07.187Z,49.29
2023-02-18T13:42:18.732Z,50.30
2023-02-18T13:45:31.588Z,51.60
2023-02-18T13:48:50.814Z,51.71
2023-02-18T13:52:00.972Z,51.74
2023-02-18T13:55:04.123Z,52.04
2023-02-18T13:58:17.261Z,52.16
2023-02-18T14:01:47.994Z,52.48
2023-02-18T14:04:57.610Z,52.89
2023-02-18T14:08:13.912Z,52.81
2023-02-18T14:11:16.377Z,53.04
2023-02-18T14:14:27.820Z,53.43
2023-02-18T14:17:40.923Z,53.81
2023-02-18T14:20:51.547Z,54.53
2023-02-18T14:23:58.645Z,54.37
2023-02-18T14:27:14.966Z,54.88
2023-02-18T14:30:23.271Z,55.05
2023-02-18T14:33:26.668Z,55.35
2023-02-18T14:36:47.380Z,55.69
2023-02-18T14:40:24.968Z,55.72
2023-02-18T14:43:58.137Z,55.32
2023-02-18T14:47:07.194Z,55.52
2023-02-18T14:50:16.889Z,55.93
2023-02-18T14:53:22.998Z,55.03
2023-02-18T14:56:25.727Z,53.13
2023-02-18T14:59:34.959Z,52.36
2023-02-18T15:02:38.859Z,52.64
2023-02-18T15:05:42.594Z,52.42
2023-02-18T15:08:48.269Z,52.69
2023-02-18T15:11:57.792Z,52.44
2023-02-18T15:15:04.056Z,53.15
2023-02-18T15:18:20.632Z,54.33
2023-02-18T15:21:37.721Z,54.92
2023-02-18T15:24:40.506Z,55.03
2023-02-18T15:27:47.179Z,55.94
2023-02-18T15:30:49.877Z,56.11
2023-02-18T15:33:52.701Z,56.44
2023-02-18T15:36:56.851Z,56.63
2023-02-18T15:39:59.618Z,56.95
2023-02-18T15:43:05.820Z,56.90
2023-02-18T15:46:14.078Z,57.44
2023-02-18T15:49:22.537Z,57.85
2023-02-18T15:52:31.762Z,58.10
2023-02-18T15:55:37.075Z,58.76
2023-02-18T15:58:39.779Z,59.13
2023-02-18T16:01:42.802Z,59.63
2023-02-18T16:04:51.075Z,59.87
2023-02-18T16:07:58.769Z,60.21
2023-02-18T16:11:06.111Z,60.71
2023-02-18T16:14:31.691Z,61.24
2023-02-18T16:17:34.662Z,62.00
2023-02-18T16:20:38.768Z,62.10
2023-02-18T16:23:54.431Z,61.49
2023-02-18T16:26:58.951Z,61.33
2023-02-18T16:30:17.090Z,61.37
2023-02-18T16:33:19.981Z,61.55
2023-02-18T16:36:25.158Z,62.03
2023-02-18T16:39:34.036Z,62.14
2023-02-18T16:42:36.623Z,62.94
2023-02-18T16:45:42.425Z,63.37
2023-02-18T16:48:56.879Z,63.45
2023-02-18T16:52:05.674Z,63.82
2023-02-18T16:55:20.495Z,64.54
2023-02-18T16:58:23.214Z,64.61
2023-02-18T17:01:27.318Z,64.89
2023-02-18T17:04:29.864Z,65.16
2023-02-18T17:07:32.924Z,65.53
2023-02-18T17:10:37.238Z,65.92
2023-02-18T17:13:40.013Z,65.63
2023-02-18T17:16:42.564Z,65.44
2023-02-18T17:19:45.132Z,65.53
2023-02-18T17:22:47.685Z,65.21
2023-02-18T17:25:51.674Z,65.91
2023-02-18T17:28:56.187Z,65.84
2023-02-18T17:31:59.767Z,66.30
2023-02-18T17:35:02.604Z,66.58
2023-02-18T17:38:11.116Z,66.46
2023-02-18T17:41:14.071Z,67.03
2023-02-18T17:44:21.360Z,67.03
2023-02-18T17:47:23.992Z,67.53
2023-02-18T17:50:29.766Z,67.56
2023-02-18T17:53:32.487Z,67.56
2023-02-18T17:56:36.338Z,67.45
2023-02-18T17:59:38.893Z,67.52
2023-02-18T18:02:41.828Z,67.65
2023-02-18T18:05:48.969Z,67.49
2023-02-18T18:08:51.977Z,67.11
2023-02-18T18:11:54.969Z,66.93
2023-02-18T18:14:57.473Z,67.52
2023-02-18T18:18:00.708Z,66.38
2023-02-18T18:21:04.575Z,66.25
2023-02-18T18:24:13.548Z,66.22
2023-02-18T18:27:16.247Z,66.25
2023-02-18T18:30:24.597Z,65.87
2023-02-18T18:33:33.260Z,66.25
2023-02-18T18:36:35.890Z,65.89
2023-02-18T18:39:38.940Z,66.17
2023-02-18T18:42:42.058Z,65.77
2023-02-18T18:45:44.913Z,65.20
2023-02-18T18:48:47.744Z,65.90
2023-02-18T18:51:51.136Z,65.82
2023-02-18T18:54:53.853Z,64.88
2023-02-18T18:57:57.578Z,63.82
2023-02-18T19:01:03.013Z,62.85
2023-02-18T19:04:05.894Z,62.02
2023-02-18T19:07:08.787Z,61.17
2023-02-18T19:10:12.619Z,61.50
2023-02-18T19:13:22.505Z,60.78
2023-02-18T19:16:34.131Z,62.07
2023-02-18T19:19:37.184Z,61.96
2023-02-18T19:22:39.880Z,61.89
2023-02-18T19:25:42.967Z,62.15
2023-02-18T19:28:46.486Z,61.24
2023-02-18T19:31:50.732Z,61.00
2023-02-18T19:34:53.595Z,60.79
2023-02-18T19:37:57.273Z,60.65
2023-02-18T19:41:16.866Z,60.41
2023-02-18T19:44:19.445Z,60.71
2023-02-18T19:47:26.478Z,60.55
2023-02-18T19:50:33.446Z,60.22
2023-02-18T19:53:36.525Z,60.33
2023-02-18T19:56:39.273Z,61.04
2023-02-18T19:59:42.033Z,60.96
2023-02-18T20:02:45.548Z,61.19
2023-02-18T20:05:49.575Z,60.70
2023-02-18T20:08:55.070Z,60.74
2023-02-18T20:11:57.902Z,61.44
2023-02-18T20:15:00.681Z,61.57
2023-02-18T20:18:03.411Z,61.67
2023-02-18T20:21:06.276Z,61.97
2023-02-18T20:24:11.302Z,61.95
2023-02-18T20:27:14.296Z,61.94
2023-02-18T20:30:16.858Z,61.64
2023-02-18T20:33:20.496Z,61.84
2023-02-18T20:36:24.239Z,62.04
2023-02-18T20:39:27.075Z,61.58
2023-02-18T20:42:29.765Z,62.47
2023-02-18T20:45:32.823Z,62.01
2023-02-18T20:48:36.911Z,61.83
2023-02-18T20:51:40.063Z,61.76
2023-02-18T20:54:42.986Z,62.32
2023-02-18T20:57:45.723Z,62.52
2023-02-18T21:00:59.154Z,63.08
2023-02-18T21:04:01.769Z,62.71
2023-02-18T21:07:04.197Z,62.54
2023-02-18T21:10:06.955Z,62.82
2023-02-18T21:13:14.957Z,61.47
2023-02-18T21:16:18.647Z,60.75
2023-02-18T21:19:21.986Z,60.95
2023-02-18T21:22:24.943Z,58.88
2023-02-18T21:25:27.476Z,57.79
2023-02-18T21:28:30.145Z,56.31
2023-02-18T21:31:39.557Z,55.96
2023-02-18T21:34:42.159Z,56.05
2023-02-18T21:37:44.672Z,55.92
2023-02-18T21:40:48.276Z,55.89
2023-02-18T21:43:51.687Z,55.44
2023-02-18T21:46:54.322Z,55.24
2023-02-18T21:49:57.104Z,55.47
2023-02-18T21:53:04.020Z,55.46
2023-02-18T21:56:11.215Z,55.87
2023-02-18T21:59:13.746Z,56.17
2023-02-18T22:02:19.197Z,56.42
2023-02-18T22:05:25.662Z,56.45
2023-02-18T22:08:28.708Z,56.45
2023-02-18T22:11:33.433Z,57.31
2023-02-18T22:14:35.957Z,57.82
2023-02-18T22:17:38.397Z,57.92
2023-02-18T22:20:40.988Z,58.47
2023-02-18T22:23:43.735Z,58.73
2023-02-18T22:26:46.961Z,58.59
2023-02-18T22:29:54.190Z,59.05
2023-02-18T22:32:56.794Z,59.35
2023-02-18T22:36:03.560Z,60.16
2023-02-18T22:39:06.809Z,59.76
2023-02-18T22:42:09.367Z,60.21
2023-02-18T22:45:11.814Z,60.76
2023-02-18T22:48:14.505Z,61.22
2023-02-18T22:51:40.677Z,61.16
2023-02-18T22:54:43.377Z,62.03
2023-02-18T22:57:45.854Z,61.42
2023-02-18T23:00:48.379Z,61.41
2023-02-18T23:03:52.149Z,61.49
2023-02-18T23:06:56.188Z,61.14
2023-02-18T23:09:59.409Z,61.15
2023-02-18T23:13:02.107Z,61.06
2023-02-18T23:16:08.376Z,60.89
2023-02-18T23:19:14.250Z,60.25
2023-02-18T23:22:30.500Z,60.16
2023-02-18T23:25:33.021Z,60.99
2023-02-18T23:28:47.668Z,61.10
2023-02-18T23:31:50.225Z,61.51
2023-02-18T23:34:52.717Z,61.41
2023-02-18T23:38:04.838Z,62.30
2023-02-18T23:41:08.573Z,62.30
2023-02-18T23:44:14.881Z,61.55
2023-02-18T23:47:17.407Z,61.88
2023-02-18T23:50:22.187Z,60.95
2023-02-18T23:53:26.482Z,59.92
2023-02-18T23:56:29.022Z,60.35
2023-02-18T23:59:31.444Z,60.30
